createdAt,value
2023-11-30T00:00:25.357Z,7.80
2023-11-30T00:02:55.211Z,7.95
2023-11-30T00:05:25.186Z,7.38
2023-11-30T00:07:57.832Z,7.03
2023-11-30T00:10:28.190Z,6.63
2023-11-30T00:12:58.292Z,7.80
2023-11-30T00:15:28.323Z,7.18
2023-11-30T00:17:58.216Z,9.23
2023-11-30T00:20:28.044Z,7.68
2023-11-30T00:23:00.456Z,8.13
2023-11-30T00:25:30.618Z,9.18
2023-11-30T00:28:00.441Z,10.60
2023-11-30T00:30:30.377Z,8.32
2023-11-30T00:33:00.343Z,8.23
2023-11-30T00:35:30.559Z,9.77
2023-11-30T00:38:02.976Z,9.52
2023-11-30T00:40:32.773Z,10.02
2023-11-30T00:43:02.667Z,8.65
2023-11-30T00:45:32.842Z,9.65
2023-11-30T00:48:02.777Z,8.02
2023-11-30T00:50:32.703Z,8.93
2023-11-30T00:53:05.417Z,7.53
2023-11-30T00:55:35.644Z,7.65
2023-11-30T00:58:05.702Z,7.47
2023-11-30T01:00:35.990Z,8.02
2023-11-30T01:03:06.226Z,7.20
2023-11-30T01:05:36.114Z,7.28
2023-11-30T01:08:08.634Z,7.28
2023-11-30T01:10:38.406Z,6.88
2023-11-30T01:13:08.568Z,6.00
2023-11-30T01:15:38.774Z,6.15
2023-11-30T01:18:08.888Z,6.15
2023-11-30T01:20:38.845Z,6.68
2023-11-30T01:23:11.546Z,6.22
2023-11-30T01:25:41.467Z,7.07
2023-11-30T01:28:11.220Z,5.97
2023-11-30T01:30:41.038Z,6.43
2023-11-30T01:33:10.966Z,6.65
2023-11-30T01:35:41.112Z,6.20
2023-11-30T01:38:13.837Z,5.95
2023-11-30T01:40:43.915Z,6.13
2023-11-30T01:43:14.008Z,6.40
2023-11-30T01:45:44.550Z,6.57
2023-11-30T01:48:14.997Z,6.78
2023-11-30T01:50:45.031Z,6.68
2023-11-30T01:53:17.882Z,7.68
2023-11-30T01:58:17.852Z,7.47
2023-11-30T02:00:47.773Z,8.15
2023-11-30T02:03:18.012Z,8.07
2023-11-30T02:05:48.223Z,7.20
2023-11-30T02:08:20.859Z,7.88
2023-11-30T02:10:52.949Z,8.48
2023-11-30T02:13:23.920Z,8.75
2023-11-30T02:15:53.712Z,8.98
2023-11-30T02:18:23.587Z,8.80
2023-11-30T02:20:53.785Z,7.95
2023-11-30T02:23:26.134Z,8.18
2023-11-30T02:25:55.985Z,9.02
2023-11-30T02:28:25.759Z,9.45
2023-11-30T02:30:55.550Z,10.48
2023-11-30T02:33:25.398Z,9.30
2023-11-30T02:35:55.245Z,8.90
2023-11-30T02:38:27.966Z,8.63
2023-11-30T02:43:29.495Z,8.63
2023-11-30T02:45:59.800Z,8.73
2023-11-30T02:48:29.820Z,8.57
2023-11-30T02:50:59.993Z,9.50
2023-11-30T02:53:32.745Z,9.30
2023-11-30T02:58:32.418Z,9.82
2023-11-30T03:01:04.329Z,9.80
2023-11-30T03:03:34.283Z,9.75
2023-11-30T03:06:04.190Z,10.35
2023-11-30T03:08:36.815Z,9.25
2023-11-30T03:11:06.814Z,9.65
2023-11-30T03:13:36.551Z,9.85
2023-11-30T03:16:06.893Z,9.57
2023-11-30T03:18:36.699Z,9.73
2023-11-30T03:21:06.937Z,9.60
2023-11-30T03:23:39.881Z,13.02
2023-11-30T03:26:10.158Z,10.05
2023-11-30T03:28:41.150Z,10.15
2023-11-30T03:31:11.174Z,9.52
2023-11-30T03:33:41.006Z,10.38
2023-11-30T03:36:11.890Z,9.40
2023-11-30T03:38:44.464Z,10.75
2023-11-30T03:41:14.398Z,10.80
2023-11-30T03:43:44.176Z,9.73
2023-11-30T03:46:13.997Z,9.52
2023-11-30T03:48:43.901Z,10.45
2023-11-30T03:51:13.937Z,9.73
2023-11-30T03:53:46.707Z,10.70
2023-11-30T03:58:46.586Z,10.55
2023-11-30T04:01:16.726Z,11.10
2023-11-30T04:03:49.374Z,10.88
2023-11-30T04:06:22.301Z,10.57
2023-11-30T04:08:54.954Z,10.77
2023-11-30T04:11:25.298Z,10.90
2023-11-30T04:13:55.167Z,10.40
2023-11-30T04:16:24.990Z,12.30
2023-11-30T04:18:54.943Z,11.60
2023-11-30T04:21:25.339Z,10.98
2023-11-30T04:23:57.813Z,11.05
2023-11-30T04:26:29.503Z,10.07
2023-11-30T04:29:01.874Z,11.27
2023-11-30T04:31:31.945Z,11.68
2023-11-30T04:34:02.029Z,11.35
2023-11-30T04:36:32.112Z,12.05
2023-11-30T04:39:05.873Z,11.45
2023-11-30T04:41:36.894Z,11.95
2023-11-30T04:44:06.821Z,12.10
2023-11-30T04:46:36.923Z,12.32
2023-11-30T04:49:08.621Z,12.80
2023-11-30T04:51:38.580Z,12.02
2023-11-30T04:54:11.294Z,11.57
2023-11-30T04:59:10.999Z,11.88
2023-11-30T05:01:40.927Z,12.82
2023-11-30T05:04:11.314Z,13.52
2023-11-30T05:06:41.191Z,12.35
2023-11-30T05:09:13.944Z,12.75
2023-11-30T05:14:13.808Z,11.60
2023-11-30T05:16:43.821Z,12.75
2023-11-30T05:19:13.573Z,11.52
2023-11-30T05:21:43.357Z,11.63
2023-11-30T05:24:15.735Z,12.98
2023-11-30T05:26:45.921Z,12.10
2023-11-30T05:29:15.693Z,11.40
2023-11-30T05:31:45.818Z,12.48
2023-11-30T05:34:15.801Z,13.10
2023-11-30T05:36:45.540Z,13.70
2023-11-30T05:39:19.089Z,13.70
2023-11-30T05:41:48.880Z,15.80
2023-11-30T05:44:18.649Z,15.27
2023-11-30T05:46:49.473Z,16.00
2023-11-30T05:49:25.064Z,14.73
2023-11-30T05:51:54.890Z,14.77
2023-11-30T05:54:27.527Z,16.10
2023-11-30T05:59:33.816Z,14.02
2023-11-30T06:02:03.751Z,14.73
2023-11-30T06:04:34.122Z,15.50
2023-11-30T06:07:04.019Z,13.52
2023-11-30T06:09:38.962Z,13.85
2023-11-30T06:12:10.464Z,13.95
2023-11-30T06:14:40.327Z,16.73
2023-11-30T06:17:10.118Z,17.58
2023-11-30T06:19:40.632Z,16.90
2023-11-30T06:22:10.483Z,14.38
2023-11-30T06:24:43.233Z,18.33
2023-11-30T06:29:43.512Z,17.77
2023-11-30T06:32:14.236Z,16.48
2023-11-30T06:34:43.987Z,15.80
2023-11-30T06:37:14.238Z,18.80
2023-11-30T06:39:47.078Z,15.80
2023-11-30T06:42:17.097Z,17.52
2023-11-30T06:44:48.940Z,14.90
2023-11-30T06:47:18.799Z,15.80
2023-11-30T06:49:48.632Z,14.57
2023-11-30T06:52:21.556Z,13.00
2023-11-30T06:54:54.739Z,11.65
2023-11-30T06:57:25.372Z,13.50
2023-11-30T06:59:55.293Z,13.93
2023-11-30T07:02:26.233Z,15.07
2023-11-30T07:04:56.100Z,13.60
2023-11-30T07:07:36.241Z,12.80
2023-11-30T07:10:11.414Z,12.38
2023-11-30T07:12:41.322Z,14.07
2023-11-30T07:15:11.716Z,12.52
2023-11-30T07:17:42.121Z,12.93
2023-11-30T07:20:12.947Z,14.55
2023-11-30T07:22:42.801Z,14.20
2023-11-30T07:25:15.198Z,12.88
2023-11-30T07:27:45.342Z,13.00
2023-11-30T07:30:15.420Z,12.10
2023-11-30T07:32:45.383Z,12.48
2023-11-30T07:35:15.671Z,13.98
2023-11-30T07:37:45.877Z,12.27
2023-11-30T07:40:19.583Z,13.63
2023-11-30T07:42:49.385Z,14.27
2023-11-30T07:45:19.495Z,13.68
2023-11-30T07:47:50.582Z,13.77
2023-11-30T07:50:21.860Z,14.00
2023-11-30T07:52:51.632Z,14.55
2023-11-30T07:55:24.380Z,13.52
2023-11-30T08:00:25.641Z,14.25
2023-11-30T08:02:56.302Z,17.63
2023-11-30T08:05:26.327Z,20.38
2023-11-30T08:07:56.527Z,22.80
2023-11-30T08:10:29.461Z,20.60
2023-11-30T08:13:01.056Z,19.85
2023-11-30T08:15:31.153Z,16.95
2023-11-30T08:18:01.087Z,15.30
2023-11-30T08:20:30.905Z,12.40
2023-11-30T08:29:07.587Z,12.93
2023-11-30T08:31:38.125Z,11.95
2023-11-30T08:34:08.087Z,12.80
2023-11-30T08:36:39.133Z,12.75
2023-11-30T08:39:10.029Z,13.00
2023-11-30T08:41:40.238Z,12.90
2023-11-30T08:44:12.731Z,13.35
2023-11-30T08:46:42.939Z,13.80
2023-11-30T08:49:13.426Z,12.85
2023-11-30T08:51:45.865Z,11.48
2023-11-30T08:56:45.765Z,11.63
2023-11-30T08:59:18.277Z,10.57
2023-11-30T09:01:48.297Z,11.35
2023-11-30T09:04:18.176Z,11.18
2023-11-30T09:06:47.981Z,11.10
2023-11-30T09:09:18.766Z,10.98
2023-11-30T09:11:48.641Z,9.93
2023-11-30T09:14:21.490Z,10.55
2023-11-30T09:16:51.277Z,11.90
2023-11-30T09:19:22.533Z,11.60
2023-11-30T09:21:52.357Z,14.27
2023-11-30T09:24:23.822Z,13.35
2023-11-30T09:26:54.887Z,14.88
2023-11-30T09:29:27.324Z,13.35
2023-11-30T09:31:57.742Z,13.50
2023-11-30T09:34:30.598Z,14.50
2023-11-30T09:37:00.402Z,12.90
2023-11-30T09:39:30.253Z,12.82
2023-11-30T09:42:01.365Z,13.40
2023-11-30T09:44:33.783Z,14.25
2023-11-30T09:47:04.246Z,12.75
2023-11-30T09:49:34.006Z,12.95
2023-11-30T09:52:03.944Z,13.48
2023-11-30T09:54:34.304Z,12.25
2023-11-30T09:57:06.090Z,14.60
2023-11-30T09:59:38.697Z,13.13
2023-11-30T10:02:12.404Z,14.45
2023-11-30T10:04:43.693Z,13.00
2023-11-30T10:07:13.645Z,12.82
2023-11-30T10:09:43.545Z,13.32
2023-11-30T10:12:14.047Z,12.68
2023-11-30T10:14:46.448Z,12.27
2023-11-30T10:17:16.587Z,12.23
2023-11-30T10:19:46.392Z,11.57
2023-11-30T10:22:17.772Z,13.20
2023-11-30T10:24:47.567Z,12.18
2023-11-30T10:27:17.473Z,12.60
2023-11-30T10:29:51.481Z,13.00
2023-11-30T10:32:21.359Z,14.00
2023-11-30T10:34:52.379Z,14.10
2023-11-30T10:37:24.457Z,12.60
2023-11-30T10:39:57.651Z,12.50
2023-11-30T10:42:27.479Z,12.43
2023-11-30T10:45:00.530Z,12.35
2023-11-30T10:47:31.972Z,13.20
2023-11-30T10:50:02.590Z,13.48
2023-11-30T10:52:32.867Z,12.85
2023-11-30T10:55:10.569Z,11.50
2023-11-30T10:57:44.899Z,12.88
2023-11-30T11:00:18.468Z,12.73
2023-11-30T11:02:49.122Z,13.00
2023-11-30T11:05:19.951Z,11.88
2023-11-30T11:07:50.473Z,12.52
2023-11-30T11:10:24.248Z,14.55
2023-11-30T11:12:54.773Z,15.43
2023-11-30T11:15:29.905Z,14.27
2023-11-30T11:18:04.601Z,12.27
2023-11-30T11:20:35.271Z,12.43
2023-11-30T11:23:10.586Z,14.60
2023-11-30T11:25:47.714Z,12.85
2023-11-30T11:28:18.379Z,12.57
2023-11-30T11:30:51.301Z,11.75
2023-11-30T11:33:22.787Z,11.75
2023-11-30T11:35:53.367Z,11.35
2023-11-30T11:38:23.318Z,11.43
2023-11-30T11:40:53.766Z,10.27
2023-11-30T11:43:23.565Z,12.32
2023-11-30T11:45:55.976Z,13.85
2023-11-30T11:48:25.826Z,10.70
2023-11-30T11:51:01.512Z,12.40
2023-11-30T11:53:28.732Z,12.05
2023-11-30T11:56:06.100Z,25.15
2023-11-30T11:58:36.760Z,29.25
2023-11-30T12:01:09.434Z,20.60
2023-11-30T12:03:47.498Z,17.10
2023-11-30T12:06:17.843Z,17.45
2023-11-30T12:08:47.673Z,17.70
2023-11-30T12:11:17.433Z,18.45
2023-11-30T12:13:47.205Z,18.70
2023-11-30T12:16:19.585Z,24.10
2023-11-30T12:18:49.941Z,25.35
2023-11-30T12:21:22.809Z,24.60
2023-11-30T12:26:22.195Z,18.58
2023-11-30T12:28:51.986Z,16.98
2023-11-30T12:31:24.522Z,14.85
2023-11-30T12:33:54.393Z,15.45
2023-11-30T12:36:24.201Z,16.35
2023-11-30T12:38:54.002Z,14.45
2023-11-30T12:41:23.801Z,16.02
2023-11-30T12:43:53.638Z,15.32
2023-11-30T12:46:26.109Z,15.90
2023-11-30T12:48:56.161Z,17.13
2023-11-30T12:51:26.009Z,15.45
2023-11-30T12:53:55.869Z,21.35
2023-11-30T12:56:28.848Z,25.67
2023-11-30T12:58:58.765Z,19.80
2023-11-30T13:01:31.713Z,21.42
2023-11-30T13:04:01.895Z,19.98
2023-11-30T13:06:32.189Z,18.77
2023-11-30T13:09:02.005Z,18.90
2023-11-30T13:11:31.793Z,16.38
2023-11-30T13:14:02.492Z,14.70
2023-11-30T13:16:34.915Z,14.20
2023-11-30T13:19:05.474Z,14.77
2023-11-30T13:21:35.326Z,13.70
2023-11-30T13:24:05.146Z,13.82
2023-11-30T13:26:34.998Z,14.48
2023-11-30T13:29:05.160Z,14.38
2023-11-30T13:31:37.580Z,14.43
2023-11-30T13:34:07.398Z,14.82
2023-11-30T13:36:37.390Z,14.80
2023-11-30T13:39:08.618Z,14.40
2023-11-30T13:41:38.390Z,14.50
2023-11-30T13:44:08.551Z,15.90
2023-11-30T13:46:41.643Z,15.55
2023-11-30T13:49:15.393Z,15.18
2023-11-30T13:51:45.862Z,15.35
2023-11-30T13:54:16.035Z,13.85
2023-11-30T13:56:46.825Z,15.82
2023-11-30T13:59:16.626Z,15.73
2023-11-30T14:01:49.157Z,14.05
2023-11-30T14:04:19.013Z,13.50
2023-11-30T14:06:53.822Z,15.70
2023-11-30T14:09:27.899Z,16.13
2023-11-30T14:11:58.128Z,14.98
2023-11-30T14:14:27.887Z,14.25
2023-11-30T14:17:02.735Z,15.75
2023-11-30T14:19:34.912Z,17.45
2023-11-30T14:22:05.055Z,18.15
2023-11-30T14:24:35.415Z,17.90
2023-11-30T14:27:05.500Z,16.88
2023-11-30T14:29:35.289Z,18.48
2023-11-30T14:32:09.109Z,17.77
2023-11-30T14:34:39.333Z,17.42
2023-11-30T14:37:09.236Z,19.75
2023-11-30T14:39:39.041Z,18.25
2023-11-30T14:42:09.714Z,19.67
2023-11-30T14:44:39.694Z,17.75
2023-11-30T14:47:12.092Z,18.42
2023-11-30T14:49:42.236Z,19.40
2023-11-30T14:52:12.155Z,19.27
2023-11-30T14:54:42.305Z,18.77
2023-11-30T14:57:14.470Z,18.25
2023-11-30T14:59:44.650Z,18.40
2023-11-30T15:02:17.664Z,19.75
2023-11-30T15:04:47.762Z,19.15
2023-11-30T15:07:17.534Z,18.38
2023-11-30T15:09:47.660Z,17.92
2023-11-30T15:12:17.903Z,17.63
2023-11-30T15:14:56.656Z,18.95
2023-11-30T15:17:32.098Z,18.60
2023-11-30T15:20:03.062Z,18.38
2023-11-30T15:22:34.395Z,19.13
2023-11-30T15:25:05.196Z,18.13
2023-11-30T15:27:35.625Z,18.75
2023-11-30T15:30:05.959Z,18.80
2023-11-30T15:32:40.687Z,18.90
2023-11-30T15:35:11.591Z,18.55
2023-11-30T15:37:49.581Z,17.55
2023-11-30T15:40:22.603Z,21.40
2023-11-30T15:42:53.885Z,23.70
2023-11-30T15:45:25.238Z,30.10
2023-11-30T15:51:00.330Z,21.75
2023-11-30T15:53:30.199Z,19.00
2023-11-30T15:56:00.285Z,24.15
2023-11-30T15:58:30.417Z,24.25
2023-11-30T16:01:00.433Z,21.92
2023-11-30T16:03:30.426Z,22.35
2023-11-30T16:06:03.008Z,19.58
2023-11-30T16:08:32.789Z,22.27
2023-11-30T16:11:02.922Z,22.30
2023-11-30T16:13:32.732Z,22.75
2023-11-30T16:16:02.651Z,22.48
2023-11-30T16:18:32.923Z,21.55
2023-11-30T16:21:05.500Z,20.65
2023-11-30T16:23:36.125Z,21.70
2023-11-30T16:26:05.982Z,21.27
2023-11-30T16:28:36.420Z,20.90
2023-11-30T16:31:07.331Z,23.17
2023-11-30T16:33:37.496Z,19.88
2023-11-30T16:36:10.500Z,21.35
2023-11-30T16:38:40.788Z,20.15
2023-11-30T16:41:11.029Z,22.95
2023-11-30T16:43:40.877Z,21.73
2023-11-30T16:46:11.326Z,22.20
2023-11-30T16:48:44.693Z,22.95
2023-11-30T16:51:17.219Z,23.02
2023-11-30T16:53:47.209Z,22.83
2023-11-30T16:56:17.149Z,23.33
2023-11-30T16:58:46.890Z,21.85
2023-11-30T17:01:16.661Z,23.05
2023-11-30T17:03:46.569Z,23.48
2023-11-30T17:06:19.239Z,23.52
2023-11-30T17:08:49.220Z,22.20
2023-11-30T17:11:21.963Z,22.83
2023-11-30T17:16:23.511Z,22.75
2023-11-30T17:18:53.604Z,23.48
2023-11-30T17:21:26.277Z,20.88
2023-11-30T17:23:58.675Z,21.98
2023-11-30T17:26:28.445Z,22.88
2023-11-30T17:28:58.203Z,22.45
2023-11-30T17:31:28.229Z,21.95
2023-11-30T17:33:58.268Z,22.98
2023-11-30T17:36:30.766Z,23.52
2023-11-30T17:39:00.867Z,23.25
2023-11-30T17:41:30.629Z,23.42
2023-11-30T17:44:00.745Z,24.90
2023-11-30T17:46:30.970Z,24.48
2023-11-30T17:49:01.091Z,23.92
2023-11-30T17:51:34.171Z,23.63
2023-11-30T17:54:03.929Z,26.60
2023-11-30T17:56:33.962Z,24.65
2023-11-30T17:59:04.533Z,24.58
2023-11-30T18:01:34.351Z,25.52
2023-11-30T18:04:04.156Z,26.25
2023-11-30T18:06:37.038Z,27.55
2023-11-30T18:09:06.899Z,28.90
2023-11-30T18:11:36.754Z,29.35
2023-11-30T18:14:06.555Z,25.92
2023-11-30T18:16:36.816Z,26.23
2023-11-30T18:19:06.706Z,26.75
2023-11-30T18:21:39.096Z,25.95
2023-11-30T18:24:09.021Z,25.45
2023-11-30T18:26:38.780Z,24.80
2023-11-30T18:29:08.579Z,26.13
2023-11-30T18:31:38.445Z,27.00
2023-11-30T18:34:08.667Z,26.27
2023-11-30T18:36:41.154Z,25.65
2023-11-30T18:39:10.950Z,26.63
2023-11-30T18:41:43.590Z,25.23
2023-11-30T18:44:13.795Z,25.70
2023-11-30T18:46:43.806Z,25.27
2023-11-30T18:49:13.939Z,26.55
2023-11-30T18:51:46.369Z,25.70
2023-11-30T18:54:17.960Z,29.70
2023-11-30T18:56:48.750Z,27.67
2023-11-30T18:59:18.557Z,26.73
2023-11-30T19:01:48.911Z,26.67
2023-11-30T19:04:19.060Z,29.60
2023-11-30T19:06:51.848Z,30.08
2023-11-30T19:09:22.819Z,28.58
2023-11-30T19:11:52.584Z,28.30
2023-11-30T19:14:22.867Z,28.35
2023-11-30T19:16:52.639Z,27.83
2023-11-30T19:19:22.409Z,29.80
2023-11-30T19:21:54.837Z,28.77
2023-11-30T19:24:24.948Z,26.77
2023-11-30T19:26:54.732Z,30.05
2023-11-30T19:29:24.833Z,27.83
2023-11-30T19:31:54.670Z,28.83
2023-11-30T19:34:26.541Z,27.30
2023-11-30T19:36:58.908Z,26.73
2023-11-30T19:39:28.928Z,27.17
2023-11-30T19:41:59.084Z,26.88
2023-11-30T19:44:31.279Z,28.58
2023-11-30T19:47:01.564Z,27.48
2023-11-30T19:49:31.411Z,26.58
2023-11-30T19:52:04.747Z,27.13
2023-11-30T19:54:34.666Z,28.38
2023-11-30T19:57:09.578Z,30.60
2023-11-30T19:59:39.665Z,30.75
2023-11-30T20:02:12.317Z,30.45
2023-11-30T20:04:42.395Z,29.38
2023-11-30T20:07:14.750Z,27.52
2023-11-30T20:09:44.804Z,29.52
2023-11-30T20:12:14.589Z,28.33
2023-11-30T20:14:44.869Z,29.15
2023-11-30T20:17:15.175Z,27.08
2023-11-30T20:19:44.927Z,26.48
2023-11-30T20:22:17.765Z,27.58
2023-11-30T20:25:03.579Z,27.55
2023-11-30T20:27:59.517Z,25.67
2023-11-30T20:30:33.111Z,24.35
2023-11-30T20:33:02.976Z,25.45
2023-11-30T20:35:33.687Z,25.60
2023-11-30T20:38:06.108Z,24.73
2023-11-30T20:40:35.881Z,26.80
2023-11-30T20:43:08.110Z,24.73
2023-11-30T20:45:37.938Z,23.65
2023-11-30T20:48:08.268Z,25.40
2023-11-30T20:50:38.234Z,25.83
2023-11-30T20:53:10.695Z,25.02
2023-11-30T20:55:40.476Z,24.98
2023-11-30T20:58:10.606Z,25.30
2023-11-30T21:00:40.475Z,26.20
2023-11-30T21:03:10.618Z,23.10
2023-11-30T21:05:40.631Z,25.38
2023-11-30T21:08:13.080Z,25.65
2023-11-30T21:10:42.833Z,23.92
2023-11-30T21:13:12.843Z,24.83
2023-11-30T21:15:42.626Z,25.42
2023-11-30T21:18:15.949Z,25.83
2023-11-30T21:20:45.775Z,27.65
2023-11-30T21:23:18.469Z,25.30
2023-11-30T21:25:49.294Z,23.63
2023-11-30T21:34:04.728Z,24.67
2023-11-30T21:36:34.699Z,25.38
2023-11-30T21:39:07.344Z,23.38
2023-11-30T21:41:37.476Z,22.52
2023-11-30T21:44:07.453Z,24.10
2023-11-30T21:46:38.509Z,22.60
2023-11-30T21:49:08.961Z,22.48
2023-11-30T21:51:39.753Z,24.85
2023-11-30T21:54:12.140Z,22.30
2023-11-30T21:56:41.898Z,23.38
2023-11-30T21:59:11.872Z,22.40
2023-11-30T22:01:41.881Z,22.45
2023-11-30T22:04:12.319Z,23.08
2023-11-30T22:06:42.299Z,22.70
2023-11-30T22:09:15.081Z,22.88
2023-11-30T22:14:14.722Z,24.50
2023-11-30T22:16:45.024Z,21.27
2023-11-30T22:19:15.101Z,22.25
2023-11-30T22:21:44.924Z,25.27
2023-11-30T22:24:18.034Z,23.42
2023-11-30T22:26:47.817Z,24.33
2023-11-30T22:29:17.995Z,22.67
2023-11-30T22:31:47.829Z,22.40
2023-11-30T22:34:17.678Z,20.60
2023-11-30T22:36:47.916Z,21.88
2023-11-30T22:39:20.808Z,21.55
2023-11-30T22:44:22.331Z,22.00
2023-11-30T22:46:52.591Z,22.95
2023-11-30T22:49:22.577Z,22.15
2023-11-30T22:51:53.058Z,23.13
2023-11-30T22:54:25.861Z,22.02
2023-11-30T22:59:25.823Z,23.73
2023-11-30T23:01:56.144Z,23.33
2023-11-30T23:04:26.177Z,22.52
2023-11-30T23:06:56.511Z,23.40
2023-11-30T23:09:29.381Z,23.73
2023-11-30T23:11:59.980Z,24.38
2023-11-30T23:14:30.065Z,22.20
2023-11-30T23:17:00.026Z,23.95
2023-11-30T23:19:33.113Z,22.00
2023-11-30T23:22:02.913Z,22.98
2023-11-30T23:24:36.288Z,22.88
2023-11-30T23:27:06.224Z,23.35
2023-11-30T23:29:37.937Z,22.23
2023-11-30T23:32:08.215Z,23.25
2023-11-30T23:34:38.655Z,22.17
2023-11-30T23:37:08.810Z,22.40
2023-11-30T23:39:41.330Z,25.02
2023-11-30T23:42:13.310Z,23.30
2023-11-30T23:44:43.059Z,25.42
2023-11-30T23:47:12.905Z,22.95
2023-11-30T23:49:42.797Z,21.17
2023-11-30T23:52:14.271Z,23.52
2023-11-30T23:54:48.057Z,23.80
2023-11-30T23:57:17.940Z,22.58
2023-11-30T23:59:47.691Z,22.70
